Terminal Aerodrome Forecast
Issued by NWS

Home | Current Version | Previous Version | Text Only | Print | Product List | Glossary On
Versions: 1 2 3 4 5 6 7 8 9 10 11 12 13 14 15 16 17 18 19 20 21 22
000
FTAK31 PAFA 242332
TAFAQT
TAF
PAQT 242332Z 2500/2524 25023G31KT 1/4SM -SN BLSN FZFG VV017
     FM250600 24032G40KT 1/4SM SN BLSN BKN007 OVC012
     FM251800 25030G39KT 1/2SM SN BLSN OVC015=

USA.gov is the U.S. government's official web portal to all federal, state and local government web resources and services.